createdAt,value
2018-04-06T00:01:05.126Z,13.9
2018-04-06T00:11:04.952Z,10.5
2018-04-06T00:21:04.903Z,7.7
2018-04-06T00:31:04.728Z,5.5
2018-04-06T00:41:05.540Z,4.8
2018-04-06T00:51:05.281Z,4.7
2018-04-06T01:01:05.159Z,3.4
2018-04-06T01:11:05.130Z,3.9
2018-04-06T01:21:05.081Z,5.0
2018-04-06T01:31:04.889Z,4.2
2018-04-06T01:41:04.722Z,4.3
2018-04-06T01:51:05.709Z,4.5
2018-04-06T02:01:05.539Z,4.6
2018-04-06T02:11:05.360Z,5.8
2018-04-06T02:21:05.513Z,7.1
2018-04-06T02:31:05.554Z,7.4
2018-04-06T02:41:05.494Z,12.2
2018-04-06T02:51:05.376Z,13.4
2018-04-06T03:01:05.218Z,14.3
2018-04-06T03:11:05.284Z,14.3
2018-04-06T03:21:05.175Z,16.1
2018-04-06T03:31:05.261Z,15.1
2018-04-06T03:41:05.070Z,14.9
2018-04-06T03:51:05.203Z,14.5
2018-04-06T04:01:04.972Z,13.1
2018-04-06T04:11:04.881Z,15.2
2018-04-06T04:21:04.851Z,17.3
2018-04-06T04:31:05.375Z,15.5
2018-04-06T04:41:05.151Z,13.2
2018-04-06T04:51:04.892Z,11.8
2018-04-06T05:01:04.696Z,15.1
2018-04-06T05:11:05.674Z,14.5
2018-04-06T05:21:05.600Z,13.3
2018-04-06T05:31:05.398Z,15.8
2018-04-06T05:41:05.192Z,16.9
2018-04-06T05:51:04.878Z,15.1
2018-04-06T06:01:04.652Z,15.6
2018-04-06T06:11:05.458Z,14.9
2018-04-06T06:21:05.413Z,14.2
2018-04-06T06:31:05.183Z,13.7
2018-04-06T06:41:04.972Z,14.2
2018-04-06T06:51:04.759Z,13.2
2018-04-06T07:01:05.562Z,12.1
2018-04-06T07:11:05.340Z,10.9
2018-04-06T07:21:05.314Z,12.2
2018-04-06T07:31:05.042Z,11.0
2018-04-06T07:41:05.052Z,12.4
2018-04-06T07:51:04.826Z,11.7
2018-04-06T08:01:05.558Z,10.8
2018-04-06T08:11:05.351Z,10.5
2018-04-06T08:21:05.270Z,10.6
2018-04-06T08:31:05.148Z,10.3
2018-04-06T08:41:04.878Z,10.3
2018-04-06T08:51:04.697Z,9.8
2018-04-06T09:01:05.805Z,10.5
2018-04-06T09:11:05.638Z,9.9
2018-04-06T09:21:05.669Z,9.9
2018-04-06T09:31:05.506Z,12.6
2018-04-06T09:41:05.343Z,9.5
2018-04-06T09:51:05.273Z,10.4
2018-04-06T10:01:05.061Z,9.7
2018-04-06T10:11:05.073Z,13.3
2018-04-06T10:21:04.946Z,10.1
2018-04-06T10:31:04.759Z,13.2
2018-04-06T10:41:06.095Z,13.4
2018-04-06T10:51:04.929Z,12.2
2018-04-06T11:01:04.766Z,7.3
2018-04-06T11:11:05.608Z,11.5
2018-04-06T11:21:05.596Z,9.0
2018-04-06T11:31:05.428Z,9.4
2018-04-06T11:41:05.289Z,7.7
2018-04-06T11:51:05.135Z,9.2
2018-04-06T12:01:05.009Z,7.3
2018-04-06T12:11:05.015Z,6.0
2018-04-06T12:21:05.063Z,6.9
2018-04-06T12:31:04.964Z,5.4
2018-04-06T12:41:05.474Z,6.1
2018-04-06T12:51:05.283Z,6.2
2018-04-06T13:01:05.133Z,7.6
2018-04-06T13:11:04.923Z,7.9
2018-04-06T13:21:04.942Z,8.4
2018-04-06T13:31:04.754Z,10.7
2018-04-06T13:41:05.593Z,10.1
2018-04-06T13:51:05.608Z,9.6
2018-04-06T14:01:05.739Z,8.9
2018-04-06T14:11:05.619Z,10.2
2018-04-06T14:21:05.884Z,6.8
2018-04-06T14:31:05.916Z,8.1
2018-04-06T14:41:05.737Z,7.8
2018-04-06T14:51:05.614Z,11.3
2018-04-06T15:01:05.933Z,9.0
2018-04-06T15:11:05.784Z,7.7
2018-04-06T15:21:05.904Z,11.3
2018-04-06T15:31:05.751Z,14.0
2018-04-06T15:41:05.611Z,13.7
2018-04-06T15:51:05.424Z,13.5
2018-04-06T16:01:05.259Z,15.4
2018-04-06T16:11:05.156Z,13.4
2018-04-06T16:21:05.334Z,18.2
2018-04-06T16:31:05.162Z,14.5
2018-04-06T16:41:04.996Z,15.9
2018-04-06T16:51:04.807Z,18.0
2018-04-06T17:01:05.641Z,21.3
2018-04-06T17:11:05.477Z,16.8
2018-04-06T17:21:05.436Z,17.2
2018-04-06T17:31:05.284Z,19.2
2018-04-06T17:41:05.042Z,24.7
2018-04-06T17:51:04.908Z,25.3
2018-04-06T18:01:05.698Z,25.0
2018-04-06T18:11:05.548Z,21.5
2018-04-06T18:21:05.423Z,16.7
2018-04-06T18:31:05.275Z,14.2
2018-04-06T18:41:05.049Z,14.3
2018-04-06T18:51:04.852Z,49.1
2018-04-06T19:01:05.626Z,51.4
2018-04-06T19:11:05.640Z,45.1
2018-04-06T19:21:05.670Z,49.2
2018-04-06T19:31:05.524Z,53.3
2018-04-06T19:41:05.388Z,68.1
2018-04-06T19:51:05.200Z,76.5
2018-04-06T20:01:05.054Z,78.8
2018-04-06T20:11:04.909Z,74.5
2018-04-06T20:21:04.860Z,64.4
2018-04-06T20:31:05.709Z,75.1
2018-04-06T20:41:05.523Z,60.0
2018-04-06T20:51:05.367Z,65.0
2018-04-06T21:01:05.598Z,62.3
2018-04-06T21:11:05.415Z,56.3
2018-04-06T21:21:05.365Z,62.1
2018-04-06T21:31:05.191Z,63.5
2018-04-06T21:41:05.024Z,60.0
2018-04-06T21:51:04.802Z,60.9
2018-04-06T22:01:05.639Z,62.7
2018-04-06T22:11:05.365Z,56.4
2018-04-06T22:21:05.288Z,57.6
2018-04-06T22:31:05.093Z,60.4
2018-04-06T22:41:04.893Z,57.4
2018-04-06T22:51:05.878Z,56.4
2018-04-06T23:01:05.592Z,68.4
2018-04-06T23:11:05.409Z,63.2
2018-04-06T23:21:05.324Z,59.1
2018-04-06T23:31:05.123Z,55.7
2018-04-06T23:41:04.931Z,55.8
2018-04-06T23:51:05.647Z,63.9
